^^
B2 Weather Station Historical Data
 
Daily Summary for October 19, 2018 Units:  English    Metric   Both
Daily Weekly Monthly Yearly Custom
  Current: High: Low: Average:
Temperature: 42.3 °F 42.3 °F 39.3 °F 40.7 °F
Dew Point: 34.6 °F 34.6 °F 31.4 °F 33 °F
Humidity: 74% 77% 71% 74%
Wind Speed: 3.5mph 5.8mph 0mph 2.7mph
Wind Gust: 0.7mph 3.6mph - -
WindSSW - - SSW
Pressure: 30.24 in 30.33 in 30.24 in -
Precipitation: 0 in      
Historical Graphs
 
 
Tabular Data for October 19, 2018
Time Temperature Dew Point Pressure Wind Wind Speed Wind Gust Humidity Rainfall Rate (Hourly) solar
00:04 40.2 °F 31.5 °F 30.33 in SSW 1.2 mph   71% 0 in 0.00 W/m2
00:09 40.1 °F 31.4 °F 30.33 in Calm     71% 0 in 0.00 W/m2
00:14 40 °F 31.7 °F 30.33 in Calm     72% 0 in 0.00 W/m2
00:19 39.8 °F 31.5 °F 30.33 in SSW 1.2 mph 0.2 mph 72% 0 in 0.00 W/m2
00:24 39.7 °F 31.8 °F 30.32 in Calm     73% 0 in 0.00 W/m2
00:29 39.5 °F 31.6 °F 30.32 in SSW 1.2 mph 0.4 mph 73% 0 in 0.00 W/m2
00:34 39.4 °F 31.5 °F 30.32 in SSW 2.3 mph 0.6 mph 73% 0 in 0.00 W/m2
00:39 39.5 °F 31.6 °F 30.32 in SSW 2.3 mph 0.1 mph 73% 0 in 0.00 W/m2
00:44 39.5 °F 31.6 °F 30.32 in Calm     73% 0 in 0.00 W/m2
00:49 39.5 °F 31.6 °F 30.32 in Calm     73% 0 in 0.00 W/m2
00:54 39.4 °F 31.5 °F 30.32 in Calm     73% 0 in 0.00 W/m2
00:59 39.3 °F 31.7 °F 30.32 in SSW 2.3 mph   74% 0 in 0.00 W/m2
01:04 39.3 °F 31.7 °F 30.32 in SSW 3.5 mph 0.4 mph 74% 0 in 0.00 W/m2
01:09 39.3 °F 31.7 °F 30.32 in SSW 3.5 mph 0.2 mph 74% 0 in 0.00 W/m2
01:14 39.4 °F 31.8 °F 30.32 in SSW 3.5 mph 2 mph 74% 0 in 0.00 W/m2
01:19 39.7 °F 31.8 °F 30.32 in SSW 3.5 mph 1.4 mph 73% 0 in 0.00 W/m2
01:24 39.8 °F 31.8 °F 30.31 in Calm     73% 0 in 0.00 W/m2
01:29 39.8 °F 31.8 °F 30.31 in SSW 1.2 mph 0.2 mph 73% 0 in 0.00 W/m2
01:34 39.8 °F 31.8 °F 30.31 in SSW 2.3 mph   73% 0 in 0.00 W/m2
01:39 39.7 °F 31.8 °F 30.31 in SSW 1 mph 1 mph 73% 0 in 0.00 W/m2
01:44 39.7 °F 31.8 °F 30.31 in SSW 3.5 mph 1.5 mph 73% 0 in 0.00 W/m2
01:49 39.9 °F 31.9 °F 30.31 in SSW 1.2 mph 0.1 mph 73% 0 in 0.00 W/m2
01:54 40 °F 32 °F 30.31 in SSW 3.5 mph 1.6 mph 73% 0 in 0.00 W/m2
01:59 40.1 °F 32.5 °F 30.31 in SSW 3 mph 0.8 mph 74% 0 in 0.00 W/m2
02:04 40.3 °F 32.7 °F 30.31 in SSW 2.3 mph   74% 0 in 0.00 W/m2
02:09 40.5 °F 32.5 °F 30.31 in SSW 3.5 mph 1.2 mph 73% 0 in 0.00 W/m2
02:14 40.7 °F 33.1 °F 30.31 in South 3.5 mph 1.3 mph 74% 0 in 0.00 W/m2
02:19 40.6 °F 33 °F 30.31 in South 2.3 mph 0.7 mph 74% 0 in 0.00 W/m2
02:24 40.5 °F 33.2 °F 30.30 in South 2.3 mph 0.6 mph 75% 0 in 0.00 W/m2
02:29 40.4 °F 33.4 °F 30.30 in South 2.3 mph 0.8 mph 76% 0 in 0.00 W/m2
02:35 40.4 °F 33.4 °F 30.30 in South 3.5 mph 1.8 mph 76% 0 in 0.00 W/m2
02:39 40.5 °F 33.9 °F 30.30 in South 1.2 mph 0.6 mph 77% 0 in 0.00 W/m2
02:44 40.5 °F 33.9 °F 30.29 in South 3.5 mph 1.3 mph 77% 0 in 0.00 W/m2
02:49 40.6 °F 34 °F 30.29 in South 1.2 mph 0.5 mph 77% 0 in 0.00 W/m2
02:54 40.7 °F 33.7 °F 30.29 in SSW 3.5 mph 0.8 mph 76% 0 in 0.00 W/m2
02:59 40.9 °F 33.9 °F 30.29 in South 3.5 mph 1.7 mph 76% 0 in 0.00 W/m2
03:04 41.2 °F 33.9 °F 30.29 in SSW 2.3 mph 0.3 mph 75% 0 in 0.00 W/m2
03:09 41.5 °F 33.8 °F 30.29 in SW 4 mph 3.1 mph 74% 0 in 0.00 W/m2
03:14 41.8 °F 33.8 °F 30.29 in SSW 3.5 mph 1.4 mph 73% 0 in 0.00 W/m2
03:19 42 °F 33.6 °F 30.29 in SSW 4.6 mph 1.6 mph 72% 0 in 0.00 W/m2
03:24 42.1 °F 33.7 °F 30.28 in SSW 3.5 mph 0.7 mph 72% 0 in 0.00 W/m2
03:29 42.1 °F 33.7 °F 30.28 in South 4.6 mph 1.5 mph 72% 0 in 0.00 W/m2
03:34 42.2 °F 33.8 °F 30.28 in SSW 4.6 mph 1.2 mph 72% 0 in 0.00 W/m2
03:39 42.2 °F 33.8 °F 30.28 in South 3.5 mph 2.3 mph 72% 0 in 0.00 W/m2
03:44 42.3 °F 33.9 °F 30.27 in South 3.5 mph 0.6 mph 72% 0 in 0.00 W/m2
03:49 42.2 °F 34.2 °F 30.27 in South 3.5 mph 1.7 mph 73% 0 in 0.00 W/m2
03:54 42 °F 34 °F 30.27 in SSW 3.5 mph 2.3 mph 73% 0 in 0.00 W/m2
03:59 41.9 °F 34.2 °F 30.27 in South 3.5 mph 2.4 mph 74% 0 in 0.00 W/m2
04:04 41.9 °F 34.2 °F 30.26 in SSW 3.5 mph 1.5 mph 74% 0 in 0.00 W/m2
04:09 41.9 °F 34.2 °F 30.26 in SSW 2.3 mph 1.4 mph 74% 0 in 0.00 W/m2
04:14 41.9 °F 34.2 °F 30.26 in SSW 3.5 mph 1.7 mph 74% 0 in 0.00 W/m2
04:19 42 °F 34 °F 30.26 in South 5.8 mph 3.6 mph 73% 0 in 0.00 W/m2
04:24 42.1 °F 34.1 °F 30.26 in SW 4.6 mph 2.1 mph 73% 0 in 0.00 W/m2
04:29 42.2 °F 34.2 °F 30.25 in South 3.5 mph 2 mph 73% 0 in 0.00 W/m2
04:34 42.1 °F 34.4 °F 30.25 in SSW 4.6 mph 3.2 mph 74% 0 in 0.00 W/m2
04:39 42.1 °F 34.4 °F 30.25 in South 5 mph 2.8 mph 74% 0 in 0.00 W/m2
04:44 42.2 °F 34.5 °F 30.25 in South 4.6 mph 2.3 mph 74% 0 in 0.00 W/m2
04:49 42.3 °F 34.6 °F 30.24 in SSW 3.5 mph 0.7 mph 74% 0 in 0.00 W/m2
Bourbonnais, Illinois, USA
Compliments of Weather Underground - 2 mb